Time;durP1;ratioP1;P1;durP2;ratioP2;P2;SDS_P1;SDS_P2;PMS_P1;PMS_P2;Temp;Humidity;BMP_temperature;BMP_pressure;BME280_temperature;BME280_humidity;BME280_pressure;Samples;Min_cycle;Max_cycle;Signal;HPM_P1;HPM_P2
2021/01/22 00:01:22;;;;;;;0.90;0.28;;;9.10;94.50;;;;;;5090338;27;20114;-82
2021/01/22 00:03:47;;;;;;;1.15;0.43;;;9.10;94.50;;;;;;5077713;27;20164;-82
2021/01/22 00:06:13;;;;;;;0.45;0.30;;;9.00;94.50;;;;;;5110496;27;20054;-83
2021/01/22 00:08:38;;;;;;;4.35;1.38;;;9.10;94.40;;;;;;5092367;27;20172;-80
2021/01/22 00:11:04;;;;;;;2.80;0.40;;;9.10;94.40;;;;;;5077484;27;20042;-84
2021/01/22 00:13:30;;;;;;;1.02;0.40;;;9.10;94.30;;;;;;5092913;27;20031;-79
2021/01/22 00:15:55;;;;;;;3.20;0.55;;;9.10;94.30;;;;;;5083756;27;20027;-84
2021/01/22 00:18:21;;;;;;;3.97;0.47;;;9.10;94.20;;;;;;5092271;27;20035;-83
2021/01/22 00:20:46;;;;;;;3.28;0.50;;;9.20;94.60;;;;;;5093974;27;20035;-81
2021/01/22 00:23:12;;;;;;;1.33;0.35;;;9.10;94.90;;;;;;5112111;27;20039;-81
2021/01/22 00:25:37;;;;;;;2.28;1.10;;;9.10;95.30;;;;;;5076876;27;20075;-84
2021/01/22 00:28:03;;;;;;;1.55;0.57;;;9.10;95.40;;;;;;5110348;27;20038;-83
2021/01/22 00:30:29;;;;;;;3.70;0.55;;;9.00;95.50;;;;;;5110697;27;20045;-83
2021/01/22 00:32:54;;;;;;;0.68;0.30;;;9.00;95.80;;;;;;5078464;27;20072;-82
2021/01/22 00:35:20;;;;;;;1.20;0.40;;;8.90;95.70;;;;;;5110721;27;20027;-83
2021/01/22 00:37:45;;;;;;;2.88;1.38;;;8.90;95.80;;;;;;5078509;27;20034;-82
2021/01/22 00:40:11;;;;;;;1.00;0.25;;;8.90;95.90;;;;;;5093259;27;20252;-82
2021/01/22 00:42:37;;;;;;;0.25;0.20;;;8.90;95.90;;;;;;5081843;27;20111;-81
2021/01/22 00:45:04;;;;;;;1.23;0.50;;;8.90;96.10;;;;;;5109199;27;20030;-83
2021/01/22 00:47:30;;;;;;;2.55;0.60;;;8.90;96.00;;;;;;5092920;27;20035;-83
2021/01/22 00:49:55;;;;;;;0.00;0.00;;;8.80;96.10;;;;;;5108633;27;20111;-83
2021/01/22 00:52:21;;;;;;;1.05;0.50;;;8.90;96.20;;;;;;5109280;27;20080;-81
2021/01/22 00:54:46;;;;;;;0.60;0.10;;;8.80;96.20;;;;;;5092161;27;20076;-82
2021/01/22 00:57:12;;;;;;;1.88;0.43;;;8.80;96.30;;;;;;5092072;27;20364;-81
2021/01/22 00:59:37;;;;;;;0.98;0.40;;;8.80;96.30;;;;;;5093897;27;20108;-82
2021/01/22 01:02:03;;;;;;;1.20;0.10;;;8.80;96.50;;;;;;5052560;27;20067;-80
2021/01/22 01:04:28;;;;;;;4.13;1.23;;;8.70;96.50;;;;;;5058797;27;20035;-81
2021/01/22 01:06:54;;;;;;;0.20;0.10;;;8.70;96.50;;;;;;5068438;27;20494;-81
2021/01/22 01:09:19;;;;;;;1.42;0.45;;;8.70;96.60;;;;;;5076169;27;20031;-81
2021/01/22 01:11:45;;;;;;;2.08;0.52;;;8.70;96.60;;;;;;5090939;27;20109;-82
2021/01/22 01:14:10;;;;;;;4.05;0.90;;;8.70;96.70;;;;;;5091909;27;20031;-83
2021/01/22 01:16:36;;;;;;;1.58;0.60;;;8.70;96.70;;;;;;5075929;27;22630;-83
2021/01/22 01:19:01;;;;;;;0.55;0.52;;;8.70;96.60;;;;;;5089810;27;20028;-80
2021/01/22 01:21:27;;;;;;;2.85;0.90;;;8.70;96.70;;;;;;5091677;27;20403;-83
2021/01/22 01:23:53;;;;;;;5.38;0.55;;;8.70;96.70;;;;;;5076136;27;20019;-83
2021/01/22 01:26:20;;;;;;;2.50;0.60;;;8.60;96.70;;;;;;5091519;27;20031;-83
2021/01/22 01:28:46;;;;;;;2.00;0.40;;;8.60;96.70;;;;;;5110160;27;20039;-83
2021/01/22 01:31:11;;;;;;;2.28;0.45;;;8.60;96.70;;;;;;5075254;27;20065;-82
2021/01/22 01:33:36;;;;;;;1.48;0.35;;;8.60;96.70;;;;;;5073365;27;20036;-83
2021/01/22 01:36:02;;;;;;;8.77;1.25;;;8.60;96.70;;;;;;5075809;27;20024;-83
2021/01/22 01:38:28;;;;;;;6.75;0.70;;;8.60;96.60;;;;;;5109861;27;20102;-82
2021/01/22 01:40:53;;;;;;;0.10;0.10;;;8.60;96.60;;;;;;5092262;27;20019;-84
2021/01/22 01:43:19;;;;;;;1.58;0.52;;;8.60;96.60;;;;;;5107531;27;20035;-84
2021/01/22 01:45:44;;;;;;;3.30;0.47;;;8.60;96.60;;;;;;5108880;27;20222;-83
2021/01/22 01:48:10;;;;;;;3.08;0.90;;;8.60;96.70;;;;;;5074007;27;20490;-81
2021/01/22 01:50:36;;;;;;;4.25;0.60;;;8.60;96.60;;;;;;5108689;27;20031;-83
2021/01/22 01:53:02;;;;;;;3.47;0.93;;;8.60;96.70;;;;;;5091694;27;20473;-81
2021/01/22 01:55:28;;;;;;;2.83;0.35;;;8.60;96.50;;;;;;5108563;27;20031;-82
2021/01/22 01:57:53;;;;;;;4.07;0.52;;;8.60;96.50;;;;;;5097696;27;20027;-83
2021/01/22 02:00:19;;;;;;;2.10;0.52;;;8.60;96.50;;;;;;5091758;27;20118;-83
2021/01/22 02:02:45;;;;;;;3.33;0.17;;;8.60;96.50;;;;;;5092955;27;20088;-82
2021/01/22 02:05:11;;;;;;;5.05;1.17;;;8.70;96.60;;;;;;5072493;27;20039;-80
2021/01/22 02:07:37;;;;;;;0.30;0.30;;;8.60;96.70;;;;;;5075159;27;20062;-80
2021/01/22 02:10:02;;;;;;;1.88;0.68;;;8.40;96.60;;;;;;5094714;27;20382;-82
2021/01/22 02:12:28;;;;;;;0.55;0.17;;;8.30;96.70;;;;;;5103348;27;20035;-82
2021/01/22 02:14:54;;;;;;;2.78;0.43;;;8.20;96.50;;;;;;5090481;27;20163;-83
2021/01/22 02:17:20;;;;;;;0.40;0.30;;;8.00;96.50;;;;;;5090174;27;20042;-82
2021/01/22 02:20:13;;;;;;;0.40;0.10;;;8.00;96.50;;;;;;5091546;27;20031;-82
2021/01/22 02:22:38;;;;;;;2.80;0.45;;;7.90;96.40;;;;;;5104902;27;20042;-83
2021/01/22 02:25:06;;;;;;;0.70;0.70;;;7.80;96.50;;;;;;5103605;27;20670;-82
2021/01/22 02:27:31;;;;;;;0.80;0.50;;;7.60;96.40;;;;;;5088425;27;20119;-81
2021/01/22 02:29:57;;;;;;;0.45;0.40;;;7.50;96.40;;;;;;5073915;27;20456;-81
2021/01/22 02:32:23;;;;;;;1.50;0.80;;;7.40;96.30;;;;;;5090095;27;20035;-83
2021/01/22 02:34:48;;;;;;;1.17;1.08;;;7.30;96.20;;;;;;5090554;27;20023;-82
2021/01/22 02:37:16;;;;;;;1.10;1.00;;;7.20;96.30;;;;;;5073906;27;20058;-82
2021/01/22 02:39:47;;;;;;;1.35;1.02;;;7.10;96.20;;;;;;5099156;28;20035;-81
2021/01/22 02:42:14;;;;;;;3.45;0.80;;;7.00;95.90;;;;;;5097024;27;20492;-83
2021/01/22 02:44:39;;;;;;;0.80;0.73;;;6.90;96.30;;;;;;5106788;27;20046;-83
2021/01/22 02:47:06;;;;;;;0.60;0.60;;;6.80;96.10;;;;;;5097706;27;20320;-83
2021/01/22 02:49:31;;;;;;;0.88;0.50;;;6.50;95.80;;;;;;5106948;27;20034;-83
2021/01/22 02:51:58;;;;;;;0.75;0.75;;;6.60;96.00;;;;;;5089330;27;20397;-81
2021/01/22 02:54:26;;;;;;;2.33;1.35;;;6.30;96.00;;;;;;5107016;27;20023;-83
2021/01/22 02:56:54;;;;;;;1.92;1.73;;;6.30;95.80;;;;;;5073685;27;20031;-81
2021/01/22 02:59:41;;;;;;;1.38;0.88;;;6.30;95.70;;;;;;5107676;27;20122;-80
2021/01/22 03:02:31;;;;;;;1.13;0.98;;;6.30;95.80;;;;;;5125649;27;20035;-83
2021/01/22 03:04:57;;;;;;;1.85;1.00;;;6.20;95.60;;;;;;5089582;27;20028;-84
2021/01/22 03:07:45;;;;;;;1.02;0.93;;;6.20;95.60;;;;;;5090019;27;20035;-82
2021/01/22 03:10:11;;;;;;;1.35;1.08;;;6.00;95.70;;;;;;5102711;28;21642;-81
2021/01/22 03:12:36;;;;;;;0.75;0.57;;;6.00;95.50;;;;;;5106658;28;20574;-83
2021/01/22 03:15:02;;;;;;;1.20;1.00;;;5.80;95.80;;;;;;5090764;27;20019;-83
2021/01/22 03:17:27;;;;;;;1.08;0.85;;;5.80;95.40;;;;;;5107575;27;20390;-83
2021/01/22 03:19:53;;;;;;;1.40;1.30;;;5.70;95.90;;;;;;5089059;28;20031;-84
2021/01/22 03:22:18;;;;;;;1.70;1.40;;;5.60;95.10;;;;;;5088764;28;20027;-80
2021/01/22 03:24:44;;;;;;;3.75;1.38;;;5.60;95.50;;;;;;5088891;28;20033;-84
2021/01/22 03:27:10;;;;;;;4.20;1.75;;;5.60;95.90;;;;;;5091151;28;20479;-84
2021/01/22 03:29:36;;;;;;;2.40;2.00;;;5.70;95.40;;;;;;5083564;28;20475;-84
2021/01/22 03:32:02;;;;;;;2.40;0.82;;;5.60;95.00;;;;;;5106789;27;20038;-83
2021/01/22 03:34:28;;;;;;;5.18;1.00;;;5.60;95.70;;;;;;5106504;28;20031;-83
2021/01/22 03:36:57;;;;;;;2.38;1.50;;;5.70;95.60;;;;;;5107010;27;20391;-84
2021/01/22 03:39:22;;;;;;;2.20;1.60;;;5.70;95.40;;;;;;5112192;27;20043;-82
2021/01/22 03:41:48;;;;;;;1.23;0.98;;;5.60;95.40;;;;;;5111986;27;20072;-83
2021/01/22 03:44:14;;;;;;;2.67;1.73;;;5.60;95.50;;;;;;5102662;27;20057;-84
2021/01/22 03:46:40;;;;;;;2.30;1.70;;;5.60;95.30;;;;;;5109226;27;20108;-82
2021/01/22 03:49:05;;;;;;;6.28;3.65;;;5.60;95.20;;;;;;5083412;27;20069;-82
2021/01/22 03:51:31;;;;;;;6.97;3.30;;;5.50;94.70;;;;;;5109917;27;20026;-82
2021/01/22 03:53:56;;;;;;;4.28;2.05;;;5.50;95.00;;;;;;5110010;27;20355;-81
2021/01/22 03:56:22;;;;;;;4.18;2.05;;;5.50;95.20;;;;;;5094150;27;20015;-79
2021/01/22 03:58:47;;;;;;;4.05;2.85;;;5.50;95.20;;;;;;5094346;27;20028;-84
2021/01/22 04:01:13;;;;;;;1.83;1.50;;;5.50;94.60;;;;;;5094211;27;20729;-84
2021/01/22 04:03:38;;;;;;;3.15;2.22;;;5.40;95.30;;;;;;5092700;27;20478;-78
2021/01/22 04:06:04;;;;;;;5.05;2.20;;;5.40;95.10;;;;;;5092387;27;20053;-82
2021/01/22 04:08:30;;;;;;;3.05;1.08;;;5.30;95.10;;;;;;5130304;27;20520;-81
2021/01/22 04:10:55;;;;;;;1.70;0.98;;;5.30;95.10;;;;;;5093256;27;20023;-83
2021/01/22 04:13:21;;;;;;;2.08;1.52;;;5.40;95.10;;;;;;5110787;27;20051;-82
2021/01/22 04:15:46;;;;;;;1.33;0.98;;;5.40;95.00;;;;;;5076346;27;20450;-81
2021/01/22 04:18:12;;;;;;;1.63;1.20;;;5.40;95.10;;;;;;5110536;27;20031;-82
2021/01/22 04:20:37;;;;;;;1.70;1.23;;;5.40;95.30;;;;;;5092014;27;20609;-83
2021/01/22 04:23:03;;;;;;;1.70;1.05;;;5.30;94.90;;;;;;5109471;27;20110;-82
2021/01/22 04:25:28;;;;;;;4.43;3.55;;;5.30;95.00;;;;;;5093530;27;20027;-80
2021/01/22 04:27:54;;;;;;;4.10;2.83;;;5.30;94.80;;;;;;5109727;27;20039;-83
2021/01/22 04:30:20;;;;;;;5.32;4.00;;;5.30;95.00;;;;;;5109460;27;20039;-81
2021/01/22 04:32:46;;;;;;;3.40;2.78;;;5.20;94.80;;;;;;5091461;27;20035;-82
2021/01/22 04:35:12;;;;;;;2.65;1.52;;;5.10;94.90;;;;;;5094300;27;20450;-81
2021/01/22 04:37:38;;;;;;;4.32;2.50;;;5.10;95.20;;;;;;5085246;27;20115;-82
2021/01/22 04:40:05;;;;;;;2.85;1.58;;;5.20;94.90;;;;;;5100112;27;20035;-83
2021/01/22 04:42:31;;;;;;;7.60;4.07;;;5.10;95.00;;;;;;5128843;27;20486;-82
2021/01/22 04:44:56;;;;;;;4.40;3.40;;;5.10;94.90;;;;;;5099371;27;20080;-81
2021/01/22 04:47:22;;;;;;;5.10;3.03;;;5.00;95.00;;;;;;5092985;27;20088;-83
2021/01/22 04:49:50;;;;;;;2.70;2.08;;;5.00;95.20;;;;;;5110282;27;20027;-82
2021/01/22 04:52:16;;;;;;;2.95;2.17;;;4.90;95.10;;;;;;5126850;27;20071;-82
2021/01/22 04:54:42;;;;;;;5.72;4.15;;;4.90;95.20;;;;;;5090321;27;20443;-82
2021/01/22 04:57:07;;;;;;;1.17;0.90;;;4.80;95.20;;;;;;5091555;27;20499;-82
2021/01/22 04:59:57;;;;;;;6.20;4.28;;;4.80;95.30;;;;;;5108513;27;20399;-82
2021/01/22 05:02:22;;;;;;;3.03;2.47;;;4.80;95.20;;;;;;5091624;27;20023;-82
2021/01/22 05:04:49;;;;;;;1.00;0.90;;;4.80;95.20;;;;;;5091578;27;20027;-83
2021/01/22 05:07:14;;;;;;;4.70;3.28;;;4.80;95.30;;;;;;5076358;27;20038;-81
2021/01/22 05:09:40;;;;;;;6.25;3.75;;;4.70;95.10;;;;;;5087418;27;20394;-82
2021/01/22 05:12:07;;;;;;;4.40;2.58;;;4.80;95.40;;;;;;5103999;27;20106;-82
2021/01/22 05:14:35;;;;;;;4.70;3.25;;;4.80;95.20;;;;;;5107460;27;20034;-81
2021/01/22 05:17:01;;;;;;;5.20;3.97;;;4.70;95.20;;;;;;5107553;27;20122;-82
2021/01/22 05:19:27;;;;;;;4.28;2.63;;;4.70;95.20;;;;;;5090633;27;20038;-81
2021/01/22 05:21:53;;;;;;;6.00;3.45;;;4.60;95.20;;;;;;5091074;27;20031;-82
2021/01/22 05:24:22;;;;;;;3.97;2.95;;;4.60;95.20;;;;;;5090326;27;20038;-82
2021/01/22 05:26:52;;;;;;;3.15;2.15;;;4.60;95.30;;;;;;5089460;27;20039;-83
2021/01/22 05:29:17;;;;;;;4.57;2.53;;;4.60;95.40;;;;;;5106779;27;20103;-83
2021/01/22 05:31:43;;;;;;;3.10;2.50;;;4.60;95.40;;;;;;5089852;27;20483;-83
2021/01/22 05:34:08;;;;;;;8.23;5.85;;;4.50;95.40;;;;;;5107360;27;20023;-82
2021/01/22 05:36:34;;;;;;;4.90;2.90;;;4.60;95.50;;;;;;5104609;27;20114;-82
2021/01/22 05:39:01;;;;;;;4.90;3.13;;;4.50;95.50;;;;;;5075350;27;20104;-82
2021/01/22 05:41:27;;;;;;;4.15;3.13;;;4.50;95.50;;;;;;5108167;27;20084;-81
2021/01/22 05:43:53;;;;;;;5.95;3.13;;;4.50;95.50;;;;;;5097450;27;20030;-82
2021/01/22 05:46:26;;;;;;;4.57;2.38;;;4.40;95.60;;;;;;5104051;27;20027;-82
2021/01/22 05:49:08;;;;;;;4.35;3.10;;;4.40;95.70;;;;;;5107254;27;20035;-82
2021/01/22 05:51:34;;;;;;;5.10;3.58;;;4.40;95.70;;;;;;5089959;27;20027;-83
2021/01/22 05:53:59;;;;;;;3.50;2.70;;;4.40;95.70;;;;;;5075534;27;20497;-82
2021/01/22 05:56:25;;;;;;;7.03;3.03;;;4.40;95.70;;;;;;5093425;27;20023;-84
2021/01/22 05:58:50;;;;;;;5.82;3.15;;;4.40;95.80;;;;;;5091183;28;20132;-81
2021/01/22 06:01:20;;;;;;;5.13;2.42;;;4.40;95.60;;;;;;5091099;27;20035;-83
2021/01/22 06:03:49;;;;;;;8.70;5.43;;;4.40;95.70;;;;;;5090371;27;20465;-85
2021/01/22 06:06:16;;;;;;;7.55;4.82;;;4.40;95.70;;;;;;5108416;27;20023;-83
2021/01/22 06:08:54;;;;;;;4.38;2.45;;;4.40;95.80;;;;;;5090469;27;20093;-85
2021/01/22 06:11:21;;;;;;;7.53;4.15;;;4.50;95.70;;;;;;5073397;27;20469;-82
2021/01/22 06:13:49;;;;;;;6.60;4.32;;;4.50;95.70;;;;;;5091777;27;20608;-82
2021/01/22 06:16:16;;;;;;;3.75;2.35;;;4.50;95.70;;;;;;5075379;27;20035;-84
2021/01/22 06:18:44;;;;;;;8.98;5.22;;;4.50;95.60;;;;;;5088186;27;20553;-80
2021/01/22 06:21:14;;;;;;;4.95;2.88;;;4.50;95.60;;;;;;5073850;27;20515;-84
2021/01/22 06:23:40;;;;;;;7.43;4.53;;;4.50;95.50;;;;;;5078732;27;20027;-81
2021/01/22 06:26:05;;;;;;;5.45;2.47;;;4.60;95.60;;;;;;5095311;27;20502;-85
2021/01/22 06:28:31;;;;;;;6.93;3.85;;;4.50;95.60;;;;;;5108411;27;20118;-83
2021/01/22 06:30:57;;;;;;;9.27;4.85;;;4.50;95.80;;;;;;5090410;27;20389;-83
2021/01/22 06:33:22;;;;;;;7.53;3.28;;;4.50;95.80;;;;;;5106712;27;20118;-84
2021/01/22 06:35:48;;;;;;;15.02;5.53;;;4.50;95.80;;;;;;5090843;27;20031;-82
2021/01/22 06:38:13;;;;;;;10.55;5.10;;;4.50;95.70;;;;;;5073779;27;20062;-81
2021/01/22 06:40:39;;;;;;;4.72;3.33;;;4.50;95.70;;;;;;5089428;27;20031;-83
2021/01/22 06:43:10;;;;;;;9.30;4.22;;;4.50;95.80;;;;;;5105664;27;20035;-84
2021/01/22 06:45:35;;;;;;;4.78;2.13;;;4.50;95.80;;;;;;5079662;27;20031;-84
2021/01/22 06:48:08;;;;;;;5.13;2.70;;;4.50;95.80;;;;;;5095059;27;20044;-84
2021/01/22 06:50:35;;;;;;;8.48;4.78;;;4.50;95.80;;;;;;5107182;27;20031;-84
2021/01/22 06:53:13;;;;;;;7.43;3.13;;;4.50;95.80;;;;;;5087945;27;20040;-81
2021/01/22 06:55:51;;;;;;;7.47;4.53;;;4.50;95.90;;;;;;5103955;27;20027;-81
2021/01/22 06:58:26;;;;;;;8.88;5.38;;;4.60;95.90;;;;;;5120949;27;20035;-83
2021/01/22 07:00:56;;;;;;;6.18;3.95;;;4.50;95.80;;;;;;5088802;27;20035;-83
2021/01/22 07:03:37;;;;;;;4.35;2.22;;;4.50;95.80;;;;;;5089769;27;20027;-83
2021/01/22 07:06:03;;;;;;;9.82;5.97;;;4.50;95.90;;;;;;5123666;27;20410;-82
2021/01/22 07:08:57;;;;;;;5.82;3.53;;;4.60;95.90;;;;;;5107719;28;20033;-83
2021/01/22 07:11:23;;;;;;;3.53;1.67;;;4.60;95.80;;;;;;5104461;27;20080;-82
2021/01/22 07:13:49;;;;;;;5.72;2.83;;;4.60;95.90;;;;;;5088451;27;20076;-81
2021/01/22 07:16:17;;;;;;;8.52;4.88;;;4.50;95.80;;;;;;5074294;27;20039;-81
2021/01/22 07:18:55;;;;;;;10.30;5.53;;;4.50;95.80;;;;;;5104254;27;20114;-82
2021/01/22 07:21:23;;;;;;;8.60;3.95;;;4.60;95.90;;;;;;5101527;28;20047;-82
2021/01/22 07:24:15;;;;;;;3.20;1.75;;;4.60;95.90;;;;;;5106778;28;20505;-83
2021/01/22 07:26:51;;;;;;;3.38;2.42;;;4.60;95.90;;;;;;5089441;28;20028;-84
2021/01/22 07:29:20;;;;;;;;;;;4.60;95.90;;;;;;5084582;28;20043;-82
2021/01/22 07:31:49;;;;;;;9.32;4.88;;;4.60;95.90;;;;;;5099599;28;19919;-83
2021/01/22 07:34:38;;;;;;;10.13;4.32;;;4.60;95.80;;;;;;5088126;28;20027;-84
2021/01/22 07:37:04;;;;;;;10.77;6.20;;;4.60;95.80;;;;;;5113308;28;20027;-81
2021/01/22 07:39:30;;;;;;;6.03;4.03;;;4.60;95.70;;;;;;5107301;28;20364;-83
2021/01/22 07:42:08;;;;;;;10.02;5.68;;;4.70;95.90;;;;;;5082045;28;20031;-81
2021/01/22 07:44:34;;;;;;;10.32;6.10;;;4.60;95.80;;;;;;5105678;28;20055;-83
2021/01/22 07:47:00;;;;;;;11.77;4.30;;;4.70;95.80;;;;;;5089333;28;20063;-82
2021/01/22 07:49:25;;;;;;;9.75;5.68;;;4.70;95.80;;;;;;5071929;28;20506;-82
2021/01/22 07:51:51;;;;;;;10.45;5.70;;;4.70;95.90;;;;;;5088238;28;20050;-82
2021/01/22 07:54:16;;;;;;;6.00;3.03;;;4.70;95.80;;;;;;5083753;28;20122;-83
2021/01/22 07:56:42;;;;;;;7.72;4.50;;;4.60;95.80;;;;;;5086528;28;20035;-83
2021/01/22 07:59:10;;;;;;;13.90;5.40;;;4.60;95.80;;;;;;5099058;28;20427;-83
2021/01/22 08:01:36;;;;;;;3.50;2.25;;;4.70;95.80;;;;;;5105603;28;20028;-84
2021/01/22 08:04:02;;;;;;;4.10;2.60;;;4.70;95.80;;;;;;5087712;28;20046;-81
2021/01/22 08:06:27;;;;;;;12.82;6.78;;;4.70;95.80;;;;;;5072633;28;20460;-84
2021/01/22 08:09:06;;;;;;;5.15;3.00;;;4.70;95.80;;;;;;5086692;28;20433;-83
2021/01/22 08:11:32;;;;;;;5.93;3.92;;;4.70;95.70;;;;;;5087857;28;20043;-83
2021/01/22 08:13:58;;;;;;;10.13;4.97;;;4.70;95.70;;;;;;5103119;28;20058;-84
2021/01/22 08:16:24;;;;;;;13.98;6.25;;;4.70;95.70;;;;;;5106126;28;20023;-85
2021/01/22 08:18:50;;;;;;;5.55;3.13;;;4.80;95.70;;;;;;5098618;27;20038;-82
2021/01/22 08:21:15;;;;;;;9.30;4.18;;;4.80;95.70;;;;;;5090121;27;20043;-81
2021/01/22 08:23:42;;;;;;;15.57;7.10;;;4.80;95.70;;;;;;5089672;27;20083;-82
2021/01/22 08:26:09;;;;;;;7.40;4.30;;;4.80;95.70;;;;;;5091476;27;20063;-82
2021/01/22 08:28:35;;;;;;;10.02;4.25;;;4.90;95.70;;;;;;5110195;27;20603;-83
2021/01/22 08:31:01;;;;;;;8.05;4.55;;;4.90;95.70;;;;;;5077078;27;20027;-81
2021/01/22 08:33:26;;;;;;;7.47;3.40;;;4.90;95.50;;;;;;5105033;27;20427;-81
2021/01/22 08:35:52;;;;;;;8.52;3.92;;;5.00;95.60;;;;;;5084041;27;20031;-81
2021/01/22 08:38:17;;;;;;;5.50;2.85;;;5.00;95.60;;;;;;5091484;27;20035;-80
2021/01/22 08:40:46;;;;;;;13.23;6.13;;;5.00;95.60;;;;;;5091582;27;20030;-80
2021/01/22 08:43:15;;;;;;;14.20;6.30;;;5.00;95.70;;;;;;5090343;27;20068;-86
2021/01/22 08:45:41;;;;;;;10.60;5.40;;;5.10;95.70;;;;;;5091074;27;20046;-86
2021/01/22 08:48:06;;;;;;;10.73;6.20;;;5.10;95.50;;;;;;5088966;27;20491;-84
2021/01/22 08:50:32;;;;;;;10.68;4.80;;;5.10;95.50;;;;;;5093465;27;20042;-84
2021/01/22 08:53:07;;;;;;;9.30;3.58;;;5.10;95.50;;;;;;5094190;27;20042;-82
2021/01/22 08:55:32;;;;;;;11.68;4.97;;;5.20;95.50;;;;;;5094599;27;20035;-84
2021/01/22 08:58:11;;;;;;;4.30;2.25;;;5.20;95.50;;;;;;5094483;27;20031;-84
2021/01/22 09:00:38;;;;;;;11.65;5.25;;;5.20;95.40;;;;;;5088357;27;20031;-84
2021/01/22 09:03:09;;;;;;;7.72;4.65;;;5.20;95.50;;;;;;5076150;27;20031;-85
2021/01/22 09:05:34;;;;;;;9.57;4.70;;;5.30;95.40;;;;;;5109471;27;20027;-86
2021/01/22 09:08:08;;;;;;;8.25;4.32;;;5.30;95.50;;;;;;5107470;27;20448;-85
2021/01/22 09:10:34;;;;;;;12.77;5.70;;;5.30;95.30;;;;;;5091900;27;20175;-83
2021/01/22 09:13:23;;;;;;;9.93;4.70;;;5.40;95.50;;;;;;5106692;27;20068;-80
2021/01/22 09:16:03;;;;;;;7.90;3.63;;;5.40;95.30;;;;;;5100154;27;20059;-84
2021/01/22 09:18:29;;;;;;;7.78;4.25;;;5.40;95.40;;;;;;5102448;27;20054;-83
2021/01/22 09:21:06;;;;;;;14.95;2.45;;;5.40;95.20;;;;;;5086924;27;20050;-83
2021/01/22 09:23:32;;;;;;;6.20;3.00;;;5.40;95.20;;;;;;5076226;27;20606;-81
2021/01/22 09:25:58;;;;;;;7.40;4.45;;;5.40;95.40;;;;;;5092796;27;20524;-83
2021/01/22 09:28:24;;;;;;;11.95;5.05;;;5.40;95.20;;;;;;5108276;27;20055;-85
2021/01/22 09:30:49;;;;;;;10.65;5.07;;;5.50;95.20;;;;;;5108133;27;20382;-85
2021/01/22 09:33:15;;;;;;;10.60;4.80;;;5.50;95.10;;;;;;5108128;27;20383;-86
2021/01/22 09:35:40;;;;;;;10.68;5.38;;;5.50;95.20;;;;;;5088066;27;20031;-81
2021/01/22 09:38:06;;;;;;;13.07;6.25;;;5.60;95.30;;;;;;5084868;27;20493;-83
2021/01/22 09:40:32;;;;;;;11.70;5.32;;;5.60;95.70;;;;;;5110003;27;20027;-85
2021/01/22 09:42:57;;;;;;;9.77;4.13;;;5.70;95.30;;;;;;5096989;27;20466;-88
2021/01/22 09:45:23;;;;;;;5.45;2.70;;;5.60;95.00;;;;;;5092177;27;20487;-85
2021/01/22 09:47:48;;;;;;;4.65;2.28;;;5.60;95.10;;;;;;5091118;27;20039;-86
2021/01/22 09:50:15;;;;;;;9.82;4.97;;;5.60;95.00;;;;;;5093450;27;20072;-86
2021/01/22 09:52:41;;;;;;;5.78;2.95;;;5.70;95.00;;;;;;5092625;27;20058;-83
2021/01/22 09:55:14;;;;;;;9.55;5.50;;;5.70;95.00;;;;;;5069748;27;20055;-85
2021/01/22 09:57:40;;;;;;;4.68;2.30;;;5.80;95.00;;;;;;5099536;27;20023;-84
2021/01/22 10:00:07;;;;;;;13.38;6.28;;;5.80;94.70;;;;;;5092612;27;20471;-82
2021/01/22 10:02:32;;;;;;;6.07;3.90;;;5.90;95.40;;;;;;5109436;27;20083;-85
2021/01/22 10:04:58;;;;;;;8.15;4.10;;;5.90;94.60;;;;;;5109460;27;20035;-87
2021/01/22 10:07:23;;;;;;;11.55;5.07;;;5.90;94.90;;;;;;5109705;27;20437;-85
2021/01/22 10:09:49;;;;;;;9.50;4.50;;;6.00;94.60;;;;;;5090657;27;20470;-86
2021/01/22 10:12:15;;;;;;;5.53;3.08;;;6.00;94.70;;;;;;5093210;27;20076;-86
2021/01/22 10:14:40;;;;;;;9.25;5.50;;;6.10;94.70;;;;;;5104572;27;20023;-86
2021/01/22 10:17:06;;;;;;;6.20;3.40;;;6.20;94.40;;;;;;5066916;27;20023;-85
2021/01/22 10:19:32;;;;;;;6.35;3.55;;;6.20;94.50;;;;;;5090790;27;20160;-82
2021/01/22 10:21:57;;;;;;;6.07;3.33;;;6.20;94.40;;;;;;5091049;27;20042;-85
2021/01/22 10:24:23;;;;;;;12.07;4.75;;;6.30;94.50;;;;;;5107691;27;20027;-85
2021/01/22 10:26:49;;;;;;;3.83;2.05;;;6.30;94.70;;;;;;5089683;27;20030;-84
2021/01/22 10:29:18;;;;;;;3.65;2.20;;;6.30;94.20;;;;;;5106843;27;20437;-84
2021/01/22 10:31:43;;;;;;;7.05;4.03;;;6.30;94.40;;;;;;5075813;27;20035;-85
2021/01/22 10:34:09;;;;;;;4.43;2.85;;;6.40;94.70;;;;;;5087140;27;20027;-86
2021/01/22 10:36:35;;;;;;;11.05;2.60;;;6.40;94.80;;;;;;5076121;27;20106;-85
2021/01/22 10:39:01;;;;;;;6.50;3.05;;;6.40;94.20;;;;;;5091586;27;20111;-85
2021/01/22 10:41:27;;;;;;;8.15;3.83;;;6.50;94.80;;;;;;5108715;27;20538;-84
2021/01/22 10:43:52;;;;;;;6.70;3.50;;;6.50;94.30;;;;;;5110535;27;20027;-84
2021/01/22 10:46:18;;;;;;;8.32;3.92;;;6.50;94.20;;;;;;5092888;27;20031;-86
2021/01/22 10:48:43;;;;;;;9.77;2.78;;;6.50;94.20;;;;;;5092889;27;20031;-84
2021/01/22 10:51:09;;;;;;;5.72;3.28;;;6.40;93.90;;;;;;5110508;27;20035;-84
2021/01/22 10:53:35;;;;;;;6.05;2.97;;;6.60;94.00;;;;;;5113516;27;20027;-86
2021/01/22 10:56:01;;;;;;;8.77;2.50;;;6.50;94.20;;;;;;5096177;28;20042;-83
2021/01/22 10:58:26;;;;;;;4.70;3.08;;;6.50;94.00;;;;;;5110032;27;20042;-84
2021/01/22 11:00:53;;;;;;;8.65;3.88;;;6.50;94.00;;;;;;5090899;27;20050;-84
2021/01/22 11:03:18;;;;;;;8.05;3.70;;;6.50;93.60;;;;;;5083070;27;20043;-84
2021/01/22 11:05:44;;;;;;;5.50;2.67;;;6.50;93.70;;;;;;5108455;27;20029;-85
2021/01/22 11:08:09;;;;;;;9.45;3.90;;;6.40;94.00;;;;;;5090382;27;20383;-85
2021/01/22 11:10:35;;;;;;;8.20;3.67;;;6.60;93.80;;;;;;5091994;27;20039;-85
2021/01/22 11:13:02;;;;;;;5.85;2.40;;;6.60;93.60;;;;;;5105905;27;20115;-81
2021/01/22 11:15:27;;;;;;;6.32;2.58;;;6.60;93.90;;;;;;5108745;28;20031;-84
2021/01/22 11:17:53;;;;;;;6.15;3.35;;;6.70;93.60;;;;;;5074330;27;20023;-86
2021/01/22 11:20:19;;;;;;;9.63;3.50;;;6.70;94.10;;;;;;5107724;27;20236;-85
2021/01/22 11:22:46;;;;;;;4.07;2.88;;;6.80;93.80;;;;;;5126795;27;20386;-85
2021/01/22 11:25:12;;;;;;;6.82;3.45;;;6.80;93.50;;;;;;5090491;28;20430;-83
2021/01/22 11:27:37;;;;;;;7.00;3.65;;;6.70;93.50;;;;;;5107382;28;20398;-83
2021/01/22 11:30:04;;;;;;;9.32;3.15;;;6.90;93.70;;;;;;5102959;27;20023;-85
2021/01/22 11:32:29;;;;;;;6.53;4.35;;;6.90;93.70;;;;;;5091059;28;20039;-83
2021/01/22 11:34:56;;;;;;;3.40;2.08;;;6.90;93.90;;;;;;5086348;28;20406;-84
2021/01/22 11:37:21;;;;;;;3.47;1.95;;;6.90;93.60;;;;;;5105240;28;20027;-85
2021/01/22 11:39:47;;;;;;;6.93;4.15;;;6.90;93.30;;;;;;5102681;27;20019;-83
2021/01/22 11:42:12;;;;;;;6.85;2.80;;;7.00;93.60;;;;;;5090778;28;20432;-84
2021/01/22 11:44:38;;;;;;;8.80;4.28;;;7.00;93.40;;;;;;5086317;28;20370;-84
2021/01/22 11:47:03;;;;;;;9.40;3.55;;;7.00;93.40;;;;;;5104179;28;20107;-85
2021/01/22 11:49:29;;;;;;;5.40;2.85;;;7.00;93.20;;;;;;5089171;28;20035;-85
2021/01/22 11:51:54;;;;;;;6.20;3.60;;;7.10;93.20;;;;;;5089423;28;20027;-84
2021/01/22 11:54:20;;;;;;;4.53;2.95;;;7.00;93.00;;;;;;5087340;28;20075;-82
2021/01/22 11:56:50;;;;;;;5.80;2.13;;;7.00;93.50;;;;;;5103043;27;20042;-83
2021/01/22 11:59:17;;;;;;;6.07;2.78;;;6.90;93.00;;;;;;5094114;27;20110;-84
2021/01/22 12:01:42;;;;;;;7.57;4.25;;;6.90;93.10;;;;;;5082672;27;20057;-84
2021/01/22 12:04:08;;;;;;;8.93;4.38;;;7.00;93.20;;;;;;5085004;27;20031;-81
2021/01/22 12:06:33;;;;;;;11.13;4.80;;;7.00;92.90;;;;;;5110495;27;20019;-83
2021/01/22 12:08:59;;;;;;;8.45;4.22;;;7.00;93.40;;;;;;5076430;27;20035;-84
2021/01/22 12:11:26;;;;;;;6.00;3.05;;;7.00;93.20;;;;;;5078172;27;20362;-82
2021/01/22 12:13:52;;;;;;;10.68;4.57;;;7.10;93.10;;;;;;5112391;27;20031;-84
2021/01/22 12:16:17;;;;;;;8.18;4.40;;;7.10;93.10;;;;;;5109794;27;20037;-82
2021/01/22 12:18:43;;;;;;;10.57;4.15;;;7.20;93.20;;;;;;5129838;27;20052;-81
2021/01/22 12:21:09;;;;;;;8.02;4.20;;;7.20;93.30;;;;;;4389143;27;10000157;-82
2021/01/22 12:23:35;;;;;;;3.80;2.63;;;7.40;93.40;;;;;;5082541;27;20027;-82
2021/01/22 12:26:01;;;;;;;8.68;5.25;;;7.60;92.90;;;;;;5103484;27;20038;-83
2021/01/22 12:28:27;;;;;;;8.85;3.42;;;7.80;92.80;;;;;;5107235;27;20096;-80
2021/01/22 12:30:53;;;;;;;7.68;3.72;;;8.00;92.40;;;;;;5085146;27;20090;-83
2021/01/22 12:33:18;;;;;;;7.57;3.63;;;8.20;92.60;;;;;;5104297;27;20073;-83
2021/01/22 12:35:49;;;;;;;15.30;4.28;;;8.40;92.20;;;;;;5103750;27;20057;-83
2021/01/22 12:38:17;;;;;;;6.63;3.90;;;8.60;91.80;;;;;;5105390;27;20474;-83
2021/01/22 12:40:43;;;;;;;6.85;3.97;;;8.80;92.00;;;;;;5105933;27;20034;-83
2021/01/22 12:43:09;;;;;;;4.35;2.17;;;9.00;90.60;;;;;;5067196;27;20039;-82
2021/01/22 12:45:34;;;;;;;9.90;3.95;;;9.30;89.40;;;;;;5090223;27;20031;-82
2021/01/22 12:48:00;;;;;;;5.05;2.88;;;9.30;90.20;;;;;;5080754;27;20045;-83
2021/01/22 12:50:25;;;;;;;4.95;3.22;;;9.50;90.20;;;;;;5106666;27;20494;-82
2021/01/22 12:52:51;;;;;;;4.97;3.53;;;9.90;87.00;;;;;;5089298;27;20031;-83
2021/01/22 12:55:16;;;;;;;5.93;3.10;;;9.70;87.50;;;;;;4737245;27;10000348;-82